This site, now in its 15th season, is a labour of love and fun from one of Ottawa's most avid time trialists and number crunchers. It adheres to and is permitted by the laws of Canada, promotes the objectives of every bicycle club whose results are shown, and is donated free of charge by myself for your enjoyment and usage. If you would like results from series you ride in to be shown here, give me (celia@drmath.ca) a shout!


Index Page
ATT OTT WTT AATT CFCTT VVVTT
Help resultformat:
Case-sensitive

OBC Open TT Series - 1993-Aug-19 - 15km (Rockliffe Pkwy) (EvtFactor = 0.9523)

Weather (18:00): Mainly Clear. Temp.: 27.3C, Humidity: 50%, DewPoint: 15.9C, Wind: SSE 11km/h, Pressure: 100.04kPa, Visibility: 24.1km, Humidex: 32.
Weather (19:00): Mostly Cloudy. Temp.: 25.8C, Humidity: 58%, DewPoint: 16.9C, Wind: SSE 9km/h, Pressure: 100.00kPa, Visibility: 24.1km, Humidex: 31.
Weather (20:00): Mostly Cloudy. Temp.: 24.1C, Humidity: 64%, DewPoint: 16.8C, Wind: SE 6km/h, Pressure: 100.00kPa, Visibility: 24.1km, Humidex: 29.

Send photos with description (when/where/what) of yourself on or off of bike to celia@drmath.ca

 
 

BESTS?
 
1 Large, John --- 19:50 45.378 1/63 OSEM 1/19 0.9949
2 Redding, Neil OBC 20:12 44.554 2/63 OVAM 1/14 1.0606
3 Parkin, Brian --- 20:32 43.831 3/63 OVAM 2/14 1.0122
4 Simpson, Bob OBC 20:33 43.796 4/63 OVBM 1/9 1.0049
5 Bachman, Paul --- 20:39 43.584 5/63 OSEM 2/19 0.9832
Burge, Craig  --- 20:39 43.584 5/63 OSEM 2/19 0.9384
Cowan, Norman  OBC 20:39 43.584 5/63 OVAM 3/14 0.9361
Guenette, Jean-Yves OBC 20:39 43.584 5/63 OVAM 3/14 0.9524
9 Aller, Brian OBC 20:45 43.373 9/63 OVAM 5/14 1.0000
10 Georgas, Chris OBC 20:46 43.339 10/63 OVBM 2/9 0.9433
11 Morvan, Jacques  OBC 21:18 42.254 11/63 OVBM 3/9 1.0381
12 Moerman, Bram  OBC 21:25 42.023 12/63 OVBM 4/9 0.9631
13 Archambault, Marc OBC 21:29 41.893 13/63 OSEM 4/19 0.9407
14 Marshall, Steve --- 21:30 41.860 14/63 XXM 1/3 1.0689
15 Odermatt, Daniel OBC 21:34 41.731 15/63 OSEM 5/19 1.2288
16 Fairhead, Denis OBC 21:38 41.602 16/63 OVAM 6/14 0.9885
17 St-Amour, Pierre OBC 21:42 41.475 17/63 OVAM 7/14 0.9085
18 Bence, John OBC 21:43 41.443 18/63 OSEM 6/19 0.9886
19 Reinisch, Stephen OBC 21:55 41.065 19/63 OSEM 7/19 0.9375
20 Buffa, Alex  OBC 22:00 40.909 20/63 OSEM 8/19 0.9226
21 Leach, Mike --- 22:02 40.847 21/63 OSEM 9/19 0.9098
22 Budd, Daniel OBC 22:20 40.299 22/63 OSEM 10/19 0.9473
23 Pazdzior, Ellen  OBC 22:24 40.179 23/63 OVAF 1/5 1.0849
24 Walton, Gail OBC 22:25 40.149 24/63 OVAF 2/5 0.9956
25 Stuart, Ian --- 22:29 40.030 25/63 XXM 2/3  
26 Montpetit, Stephane OBC 22:33 39.911 26/63 OSEM 11/19 0.9758
27 Bachman, Mike --- 22:35 39.852 27/63 OVBM 5/9 0.9715
28 Franks, Greg OBC 22:46 39.531 28/63 OSEM 12/19 0.9847
29 Humphreys, Les  OBC/ABC 22:47 39.503 29/63 OVBM 6/9 1.0155
30 Smallwood, Steve OBC 22:49 39.445 30/63 OVAM 8/14 1.0088
31 Tamborine, Don OBC 22:55 39.273 31/63 OVBM 7/9 0.9486
32 White, Chris --- 22:56 39.244 32/63 OVAM 9/14 0.9913
33 Ménard, Monique OBC 23:02 39.074 33/63 OSEF 1/1 0.9871
34 Shadeed, Charles OBC 23:13 38.765 34/63 OVAM 10/14 1.0660
35 Bowring, John --- 23:31 38.271 35/63 OJUM 1/3 0.9356
36 Cossette, Mari-Josée --- 23:38 38.082 36/63 XXF 1/1 0.9604
37 Hiscocks, Roger OBC 23:40 38.028 37/63 OVBM 8/9  
Norton, Alan --- 23:40 38.028 37/63 OSEM 13/19 0.9198
39 Murray, Ken OBC 23:42 37.975 39/63 OCAM 1/1 1.0106
40 Gilchrist, Ryan  OBC 23:43 37.948 40/63 OSEM 14/19 1.1114
41 Montag, Daniel OBC 23:45 37.895 41/63 OVAM 11/14 1.0191
42 Anderson, Allan OBC 23:47 37.842 42/63 OVAM 12/14 0.9709
43 Hays, Ryan OBC 24:09 37.267 43/63 U18M 1/2 0.9794
44 Davison, Peter OBC 24:22 36.936 44/63 OVBM 9/9 1.0249
45 Scruton, Robert OBC 24:44 36.388 45/63 OSEM 15/19 1.0472
46 Sim, Darryl OBC 24:45 36.364 46/63 XXM 3/3  
47 Taylor, Doug --- 24:46 36.339 47/63 OVAM 13/14  
48 DeVidi, Robert  OBC 24:52 36.193 48/63 OSEM 16/19 0.9741
49 Maly, Peter --- 24:58 36.048 49/63 OSEM 17/19  
50 McInnis, Celia  OBC 25:03 35.928 50/63 OVAF 3/5 0.9567
51 Aller, Mo OBC 25:20 35.526 51/63 OVCM 1/2 0.9940
52 Allen, Brent OBC 25:29 35.317 52/63 OSEM 18/19 0.9180
53 Chen, Jonathan --- 25:31 35.271 53/63 OSEM 19/19 0.6526
54 Soucy, Dominic OBC 25:34 35.202 54/63 OJUM 2/3 0.8498
55 James, Peter OBC 25:45 34.951 55/63 OVAM 14/14 0.9903
56 Ajersch, Mary  OBC 25:52 34.794 56/63 OVBF 1/2 0.8743
Smart, Eric OBC 25:52 34.794 56/63 OVCM 2/2 0.9119
58 Fortey, Brian OBC 26:48 33.582 58/63 OJUM 3/3 0.9888
59 Girouard, Marcie OBC 27:06 33.210 59/63 OVAF 4/5 1.3097
60 Gerber, Rosmarie OBC 27:33 32.668 60/63 OVBF 2/2 0.9292
61 Dietiker-Davison, Judy --- 27:45 32.432 61/63 OVAF 5/5 1.3851
62 LaVictoire, Eric --- 27:48 32.374 62/63 U18M 2/2  
s 63 MacDonald, Jackie  OBC 30:02 29.967 63/63 OVCF 1/1  
 
Average Speed of all of the above 63 finishes (945km in 24:32:14):38.513
>>>Average of the Average Speeds for these 63 finishes38.835<<<
 

The number of data records shown above is 63
The server processing of your query took: 3 wallclock secs ( 0.07 usr + 0.01 sys = 0.08 CPU)

Thanks to our Helpers: Joan Hollywood, Rudy Hollywood, Steve Daniels, Mike Martignago.

     


Apr 9 (Good Friday) Apr 15 Apr 22 (cancelled) Apr 27 Apr 29
May 4 (10km) May 6 May 11 May 11 (10km) May 13 (22km) May 16 (40km) May 18 May 18 (10km) May 20 May 25 May 25 (10km) May 27 (38km) May 30 (40km)
Jun 1 Jun 3 Jun 8 Jun 10 (22km) Jun 15 Jun 17 Jun 22 Jun 22 Jun 24 (38km) Jun 25 Jun 27 (40km/80km) Jun 29 Jun 29 Jun 30
Jul 6 Jul 6 Jul 8 Jul 13 Jul 13 Jul 15 (38km) Jul 20 Jul 20 Jul 22 Jul 25 (80km) Jul 27 Jul 29 (22km)
Aug 3 Aug 3 Aug 5 Aug 7 (38km) Aug 10 Aug 10 Aug 12 Aug 15 (40km/80km) Aug 17
  Aug 19  
Aug 21 (22km) Aug 24 Aug 24 Aug 26 Aug 29 (40km) Aug 31 (Invitational)
Sep 2 Sep 7 Sep 9 Sep 14 Sep 16 Sep 25 (40km)

OTT Rankings
Best       Best by category
WTT Rankings for OBC Members
5 Best 15km     5 Best 15km by category
OBC Member Best Three 15km Rankings
Overall     by category
OBC BAR Ranking
Overall     by category     Rider "Consistency-Graph"
ABC BAR Ranking
Overall     by category     Rider "Consistency-Graph"
Other years
TT Calculator All TT People All TT events
ABC Home VVV Home
CKAP GOLD MEDAL
Other Links

Please send your comments and suggestions to: Celia McInnis
Copyright © 1998-2011 Celia McInnis. All rights reserved. Links are welcomed.